createdAt,value
2019-06-10T00:01:44.516Z,72.57
2019-06-10T00:06:46.987Z,73.12
2019-06-10T00:11:51.493Z,73.83
2019-06-10T00:16:51.905Z,73.51
2019-06-10T00:21:54.360Z,73.94
2019-06-10T00:26:57.771Z,74.29
2019-06-10T00:32:03.300Z,74.52
2019-06-10T00:37:04.312Z,74.96
2019-06-10T00:42:07.608Z,75.16
2019-06-10T00:47:08.253Z,75.44
2019-06-10T00:52:11.702Z,77.05
2019-06-10T00:57:12.464Z,77.21
2019-06-10T01:02:14.621Z,77.17
2019-06-10T01:07:16.603Z,76.98
2019-06-10T01:12:21.050Z,77.27
2019-06-10T01:17:21.538Z,77.45
2019-06-10T01:22:23.991Z,77.54
2019-06-10T01:27:26.679Z,77.46
2019-06-10T01:32:31.179Z,78.73
2019-06-10T01:37:31.623Z,79.09
2019-06-10T01:42:34.096Z,78.83
2019-06-10T01:47:36.563Z,79.69
2019-06-10T01:52:40.970Z,80.18
2019-06-10T01:57:41.495Z,79.76
2019-06-10T02:02:44.926Z,79.13
2019-06-10T02:07:46.427Z,79.01
2019-06-10T02:12:50.851Z,79.50
2019-06-10T02:17:51.351Z,79.37
2019-06-10T02:22:53.840Z,78.81
2019-06-10T02:27:56.315Z,79.78
2019-06-10T02:32:58.790Z,79.32
2019-06-10T02:38:03.484Z,79.67
2019-06-10T02:43:03.716Z,79.45
2019-06-10T02:48:06.203Z,79.62
2019-06-10T02:53:08.637Z,79.67
2019-06-10T02:58:13.760Z,79.67
2019-06-10T03:03:15.142Z,80.07
2019-06-10T03:08:16.226Z,79.94
2019-06-10T03:13:19.682Z,80.34
2019-06-10T03:18:22.486Z,79.52
2019-06-10T03:23:26.368Z,79.78
2019-06-10T03:28:25.920Z,80.47
2019-06-10T03:33:36.735Z,80.73
2019-06-10T03:38:32.558Z,81.23
2019-06-10T03:43:33.337Z,81.33
2019-06-10T03:48:35.791Z,80.98
2019-06-10T03:53:38.276Z,79.98
2019-06-10T03:58:43.003Z,80.37
2019-06-10T04:03:43.226Z,80.57
2019-06-10T04:08:45.683Z,80.37
2019-06-10T04:13:48.156Z,79.28
2019-06-10T04:18:50.617Z,78.75
2019-06-10T04:23:53.125Z,77.94
2019-06-10T04:28:55.596Z,77.45
2019-06-10T04:33:58.050Z,77.08
2019-06-10T04:39:03.017Z,76.24
2019-06-10T04:44:03.001Z,75.37
2019-06-10T04:49:05.469Z,73.48
2019-06-10T04:54:07.951Z,72.32
2019-06-10T04:59:12.494Z,71.48
2019-06-10T05:04:12.884Z,69.26
2019-06-10T05:09:15.353Z,69.25
2019-06-10T05:14:17.813Z,67.00
2019-06-10T05:19:20.296Z,66.94
2019-06-10T05:24:25.202Z,67.06
2019-06-10T05:29:27.838Z,67.76
2019-06-10T05:34:28.775Z,69.40
2019-06-10T05:39:30.733Z,70.48
2019-06-10T05:44:34.576Z,71.71
2019-06-10T05:49:36.176Z,71.33
2019-06-10T05:54:37.624Z,71.29
2019-06-10T05:59:40.092Z,71.04
2019-06-10T06:04:42.949Z,70.84
2019-06-10T06:09:45.252Z,70.11
2019-06-10T06:14:47.715Z,67.63
2019-06-10T06:19:50.174Z,65.81
2019-06-10T06:24:52.638Z,64.79
2019-06-10T06:29:55.099Z,60.57
2019-06-10T06:34:57.556Z,59.14
2019-06-10T06:40:02.619Z,59.33
2019-06-10T06:45:03.091Z,60.43
2019-06-10T06:50:04.964Z,59.88
2019-06-10T06:55:07.444Z,60.27
2019-06-10T07:00:37.226Z,60.49
2019-06-10T07:05:12.672Z,62.66
2019-06-10T07:10:14.979Z,64.07
2019-06-10T07:15:17.498Z,63.45
2019-06-10T07:20:19.947Z,63.58
2019-06-10T07:25:23.048Z,63.94
2019-06-10T07:30:25.088Z,65.70
2019-06-10T07:35:27.545Z,66.64
2019-06-10T07:40:30.018Z,67.11
2019-06-10T07:45:33.796Z,66.79
2019-06-10T07:50:36.184Z,65.70
2019-06-10T07:55:37.919Z,66.44
2019-06-10T08:00:40.817Z,65.21
2019-06-10T08:05:44.397Z,65.28
2019-06-10T08:10:46.420Z,66.94
2019-06-10T08:15:48.365Z,68.36
2019-06-10T08:20:49.798Z,68.18
2019-06-10T08:25:57.257Z,68.85
2019-06-10T08:30:54.746Z,69.16
2019-06-10T08:36:00.472Z,69.56
2019-06-10T08:40:59.702Z,69.00
2019-06-10T08:46:02.727Z,68.15
2019-06-10T08:51:04.628Z,66.34
2019-06-10T08:56:07.197Z,63.25
2019-06-10T09:01:09.601Z,61.75
2019-06-10T09:06:13.283Z,48.94
2019-06-10T09:11:14.576Z,51.55
2019-06-10T09:16:19.511Z,56.97
2019-06-10T09:21:19.531Z,54.53
2019-06-10T09:26:22.917Z,39.89
2019-06-10T09:31:24.461Z,43.59
2019-06-10T09:36:26.944Z,49.13
2019-06-10T09:41:39.959Z,53.06
2019-06-10T09:46:33.045Z,54.56
2019-06-10T09:51:34.588Z,41.01
2019-06-10T09:56:37.087Z,24.60
2019-06-10T10:01:40.879Z,29.15
2019-06-10T10:06:44.835Z,32.01
2019-06-10T10:11:47.392Z,33.26
2019-06-10T10:16:52.261Z,38.46
2019-06-10T10:21:55.148Z,41.31
2019-06-10T10:26:57.119Z,38.75
2019-06-10T10:31:54.422Z,40.55
2019-06-10T10:36:57.450Z,36.38
2019-06-10T10:41:59.389Z,36.03
2019-06-10T10:47:03.632Z,38.16
2019-06-10T10:52:04.423Z,41.80
2019-06-10T10:57:06.909Z,45.46
2019-06-10T11:02:09.674Z,43.57
2019-06-10T11:07:13.053Z,44.77
2019-06-10T11:12:15.296Z,44.98
2019-06-10T11:17:17.761Z,45.30
2019-06-10T11:22:23.189Z,42.24
2019-06-10T11:27:22.820Z,44.00
2019-06-10T11:32:25.207Z,44.82
2019-06-10T11:37:27.689Z,47.03
2019-06-10T11:42:30.166Z,48.04
2019-06-10T11:47:33.080Z,50.03
2019-06-10T11:52:35.126Z,50.88
2019-06-10T11:57:37.633Z,47.12
2019-06-10T12:02:42.349Z,41.14
2019-06-10T12:07:42.868Z,40.53
2019-06-10T12:12:45.118Z,38.00
2019-06-10T12:17:52.662Z,38.32
2019-06-10T12:22:50.080Z,40.88
2019-06-10T12:27:55.910Z,38.45
2019-06-10T12:32:58.728Z,41.16
2019-06-10T12:37:59.816Z,43.32
2019-06-10T12:43:01.979Z,44.60
2019-06-10T12:48:06.370Z,46.84
2019-06-10T12:53:07.207Z,47.60
2019-06-10T12:58:07.571Z,50.42
2019-06-10T13:03:10.060Z,53.62
2019-06-10T13:08:13.294Z,53.99
2019-06-10T13:13:15.014Z,54.94
2019-06-10T13:18:19.420Z,56.47
2019-06-10T13:23:25.343Z,56.41
2019-06-10T13:28:22.555Z,57.70
2019-06-10T13:33:24.968Z,57.98
2019-06-10T13:38:27.621Z,58.54
2019-06-10T13:43:34.068Z,59.59
2019-06-10T13:48:35.556Z,59.40
2019-06-10T13:53:38.075Z,59.03
2019-06-10T13:58:45.051Z,59.01
2019-06-10T14:03:43.921Z,57.41
2019-06-10T14:08:45.563Z,56.20
2019-06-10T14:13:48.056Z,58.03
2019-06-10T14:18:51.722Z,59.02
2019-06-10T14:23:53.811Z,58.40
2019-06-10T14:28:55.603Z,58.32
2019-06-10T14:33:58.135Z,59.01
2019-06-10T14:39:00.614Z,60.88
2019-06-10T14:44:04.472Z,60.84
2019-06-10T14:49:06.802Z,60.79
2019-06-10T14:54:09.360Z,60.25
2019-06-10T14:59:14.102Z,58.33
2019-06-10T15:04:15.132Z,56.72
2019-06-10T15:09:15.824Z,57.39
2019-06-10T15:14:18.273Z,58.99
2019-06-10T15:19:26.359Z,58.41
2019-06-10T15:24:23.897Z,56.16
2019-06-10T15:29:25.907Z,56.43
2019-06-10T15:34:28.475Z,58.26
2019-06-10T15:39:33.328Z,57.71
2019-06-10T15:44:48.788Z,59.04
2019-06-10T15:49:36.083Z,60.19
2019-06-10T15:54:42.547Z,60.70
2019-06-10T15:59:42.891Z,61.25
2019-06-10T16:04:45.389Z,62.19
2019-06-10T16:09:47.863Z,62.49
2019-06-10T16:14:52.637Z,62.89
2019-06-10T16:19:53.278Z,63.01
2019-06-10T16:24:55.461Z,63.63
2019-06-10T16:29:57.937Z,62.96
2019-06-10T16:35:00.525Z,64.25
2019-06-10T16:40:03.391Z,64.33
2019-06-10T16:45:05.466Z,65.94
2019-06-10T16:50:07.998Z,66.86
2019-06-10T16:55:12.604Z,67.24
2019-06-10T17:00:14.534Z,68.06
2019-06-10T17:05:15.556Z,68.37
2019-06-10T17:10:18.104Z,68.51
2019-06-10T17:15:21.090Z,68.57
2019-06-10T17:20:23.687Z,68.97
2019-06-10T17:25:26.924Z,69.48
2019-06-10T17:30:28.479Z,69.05
2019-06-10T17:35:36.424Z,69.24
2019-06-10T17:40:33.717Z,69.49
2019-06-10T17:45:35.798Z,69.57
2019-06-10T17:50:38.387Z,69.76
2019-06-10T17:55:40.900Z,70.48
2019-06-10T18:00:43.434Z,71.25
2019-06-10T18:05:45.954Z,71.75
2019-06-10T18:10:48.444Z,71.12
2019-06-10T18:15:53.179Z,71.45
2019-06-10T18:20:53.889Z,70.62
2019-06-10T18:25:56.041Z,70.97
2019-06-10T18:30:58.583Z,71.07
2019-06-10T18:36:01.077Z,70.58
2019-06-10T18:41:03.608Z,71.02
2019-06-10T18:46:06.089Z,72.08
2019-06-10T18:51:08.594Z,72.28
2019-06-10T18:56:12.849Z,72.62
2019-06-10T19:01:13.567Z,72.82
2019-06-10T19:06:16.086Z,72.72
2019-06-10T19:11:18.613Z,73.73
2019-06-10T19:16:23.296Z,73.45
2019-06-10T19:21:23.589Z,73.56
2019-06-10T19:26:26.066Z,73.99
2019-06-10T19:31:28.569Z,73.42
2019-06-10T19:36:31.496Z,74.05
2019-06-10T19:41:36.599Z,73.83
2019-06-10T19:46:36.099Z,74.71
2019-06-10T19:51:38.902Z,74.44
2019-06-10T19:56:41.691Z,74.65
2019-06-10T20:01:46.669Z,74.78
2019-06-10T20:06:50.328Z,74.89
2019-06-10T20:11:48.608Z,74.76
2019-06-10T20:16:52.725Z,75.21
2019-06-10T20:21:53.796Z,75.16
2019-06-10T20:26:56.298Z,75.46
2019-06-10T20:31:58.824Z,76.12
2019-06-10T20:37:04.313Z,77.26
2019-06-10T20:42:03.807Z,77.89
2019-06-10T20:47:06.311Z,78.16
2019-06-10T20:52:14.023Z,78.82
2019-06-10T20:57:12.159Z,79.53
2019-06-10T21:02:13.758Z,79.45
2019-06-10T21:07:16.243Z,79.44
2019-06-10T21:12:18.736Z,79.38
2019-06-10T21:17:22.800Z,79.53
2019-06-10T21:22:23.728Z,79.55
2019-06-10T21:27:26.257Z,79.55
2019-06-10T21:32:28.716Z,80.17
2019-06-10T21:37:32.015Z,80.24
2019-06-10T21:42:33.698Z,80.67
2019-06-10T21:47:36.184Z,80.53
2019-06-10T21:52:38.663Z,80.61
2019-06-10T21:57:43.023Z,80.77
2019-06-10T22:02:45.174Z,80.54
2019-06-10T22:07:46.111Z,80.92
2019-06-10T22:12:48.627Z,80.97
2019-06-10T22:17:53.361Z,81.37
2019-06-10T22:22:55.094Z,80.81
2019-06-10T22:27:56.213Z,80.87
2019-06-10T22:32:58.585Z,80.91
2019-06-10T22:38:02.540Z,80.95
2019-06-10T22:43:03.575Z,81.07
2019-06-10T22:48:06.044Z,80.76
2019-06-10T22:53:08.535Z,81.07
2019-06-10T22:58:14.304Z,80.94
2019-06-10T23:03:13.480Z,81.07
2019-06-10T23:08:15.940Z,81.04
2019-06-10T23:13:18.428Z,81.12
2019-06-10T23:18:22.415Z,80.91
2019-06-10T23:23:23.537Z,80.65
2019-06-10T23:28:25.923Z,80.81
2019-06-10T23:33:28.397Z,80.64
2019-06-10T23:38:32.931Z,80.93
2019-06-10T23:43:33.342Z,80.69
2019-06-10T23:48:35.798Z,81.22
2019-06-10T23:53:38.255Z,81.10
2019-06-10T23:58:43.159Z,80.89
